Terminal Aerodrome Forecast
Issued by NWS Cleveland, OH

Home | Current Version | Previous Version | Graphics & Text | Print | Product List | Glossary On
Versions: 1 2 3 4 5 6 7 8 9 10 11 12 13 14
000
FTUS41 KCLE 062342
TAFTOL
TAF
KTOL 062342Z 0700/0724 21006KT P6SM SCT250
     FM070900 21007KT P6SM SCT100 BKN250
     FM071400 23012KT 4SM -SHRA BR OVC015
     FM072000 31008KT 3SM -SHRA BR OVC007
     FM072200 35007KT 4SM -SHRA BR OVC007=

USA.gov is the U.S. government's official web portal to all federal, state and local government web resources and services.